Aviation Digital Data Service (ADDS)

Output produced by METARs form (0056 UTC 22 September 2017)
found at http://www.aviationweather.gov/adds/metars/
 
TAF TDPD 211700Z 2118/2218 14015KT 9999 SCT016